sensor_id;sensor_type;location;lat;lon;timestamp;P1;durP1;ratioP1;P2;durP2;ratioP2
13866;SDS011;7003;46.982;15.248;2023-02-16T00:01:56;12.50;;;10.13;;
13866;SDS011;7003;46.982;15.248;2023-02-16T00:04:27;9.07;;;7.77;;
13866;SDS011;7003;46.982;15.248;2023-02-16T00:06:58;13.27;;;9.20;;
13866;SDS011;7003;46.982;15.248;2023-02-16T00:09:27;13.97;;;8.20;;
13866;SDS011;7003;46.982;15.248;2023-02-16T00:11:54;14.77;;;7.80;;
13866;SDS011;7003;46.982;15.248;2023-02-16T00:14:54;18.37;;;10.80;;
13866;SDS011;7003;46.982;15.248;2023-02-16T00:17:23;11.37;;;7.10;;
13866;SDS011;7003;46.982;15.248;2023-02-16T00:19:50;12.10;;;7.67;;
13866;SDS011;7003;46.982;15.248;2023-02-16T00:22:19;14.23;;;7.80;;
13866;SDS011;7003;46.982;15.248;2023-02-16T00:24:46;11.60;;;9.13;;
13866;SDS011;7003;46.982;15.248;2023-02-16T00:27:14;16.37;;;8.30;;
13866;SDS011;7003;46.982;15.248;2023-02-16T00:29:42;22.30;;;9.17;;
13866;SDS011;7003;46.982;15.248;2023-02-16T00:32:10;12.37;;;8.50;;
13866;SDS011;7003;46.982;15.248;2023-02-16T00:34:42;13.37;;;8.30;;
13866;SDS011;7003;46.982;15.248;2023-02-16T00:37:12;10.97;;;8.50;;
13866;SDS011;7003;46.982;15.248;2023-02-16T00:39:40;12.67;;;8.00;;
13866;SDS011;7003;46.982;15.248;2023-02-16T00:42:10;17.20;;;9.40;;
13866;SDS011;7003;46.982;15.248;2023-02-16T00:44:47;23.33;;;9.53;;
13866;SDS011;7003;46.982;15.248;2023-02-16T00:47:19;11.97;;;7.07;;
13866;SDS011;7003;46.982;15.248;2023-02-16T00:49:51;23.60;;;10.40;;
13866;SDS011;7003;46.982;15.248;2023-02-16T00:52:29;20.47;;;10.50;;
13866;SDS011;7003;46.982;15.248;2023-02-16T00:55:00;14.40;;;8.00;;
13866;SDS011;7003;46.982;15.248;2023-02-16T00:57:31;18.67;;;8.53;;
13866;SDS011;7003;46.982;15.248;2023-02-16T01:00:02;14.33;;;9.60;;
13866;SDS011;7003;46.982;15.248;2023-02-16T01:02:35;11.00;;;8.83;;
13866;SDS011;7003;46.982;15.248;2023-02-16T01:05:04;15.97;;;8.67;;
13866;SDS011;7003;46.982;15.248;2023-02-16T01:07:32;12.70;;;8.67;;
13866;SDS011;7003;46.982;15.248;2023-02-16T01:10:20;12.00;;;8.10;;
13866;SDS011;7003;46.982;15.248;2023-02-16T01:13:06;9.07;;;6.83;;
13866;SDS011;7003;46.982;15.248;2023-02-16T01:15:34;12.97;;;8.07;;
13866;SDS011;7003;46.982;15.248;2023-02-16T01:18:02;12.17;;;7.83;;
13866;SDS011;7003;46.982;15.248;2023-02-16T01:20:31;10.60;;;6.70;;
13866;SDS011;7003;46.982;15.248;2023-02-16T01:22:59;10.53;;;6.50;;
13866;SDS011;7003;46.982;15.248;2023-02-16T01:25:28;8.83;;;6.10;;
13866;SDS011;7003;46.982;15.248;2023-02-16T01:27:55;13.93;;;10.43;;
13866;SDS011;7003;46.982;15.248;2023-02-16T01:30:23;14.10;;;9.57;;
13866;SDS011;7003;46.982;15.248;2023-02-16T01:32:52;16.77;;;9.33;;
13866;SDS011;7003;46.982;15.248;2023-02-16T01:35:23;10.27;;;7.73;;
13866;SDS011;7003;46.982;15.248;2023-02-16T01:37:55;18.23;;;8.27;;
13866;SDS011;7003;46.982;15.248;2023-02-16T01:40:25;14.00;;;8.53;;
13866;SDS011;7003;46.982;15.248;2023-02-16T01:43:02;10.90;;;8.30;;
13866;SDS011;7003;46.982;15.248;2023-02-16T01:45:38;6.73;;;5.73;;
13866;SDS011;7003;46.982;15.248;2023-02-16T01:48:11;13.60;;;8.40;;
13866;SDS011;7003;46.982;15.248;2023-02-16T01:50:47;6.73;;;5.93;;
13866;SDS011;7003;46.982;15.248;2023-02-16T01:53:22;10.77;;;8.37;;
13866;SDS011;7003;46.982;15.248;2023-02-16T01:55:59;8.87;;;7.97;;
13866;SDS011;7003;46.982;15.248;2023-02-16T01:58:32;13.40;;;8.97;;
13866;SDS011;7003;46.982;15.248;2023-02-16T02:01:32;11.37;;;6.90;;
13866;SDS011;7003;46.982;15.248;2023-02-16T02:04:08;15.33;;;8.37;;
13866;SDS011;7003;46.982;15.248;2023-02-16T02:06:55;11.40;;;8.53;;
13866;SDS011;7003;46.982;15.248;2023-02-16T02:09:24;23.27;;;8.90;;
13866;SDS011;7003;46.982;15.248;2023-02-16T02:12:01;11.63;;;7.37;;
13866;SDS011;7003;46.982;15.248;2023-02-16T02:14:34;12.30;;;7.33;;
13866;SDS011;7003;46.982;15.248;2023-02-16T02:17:05;13.70;;;8.43;;
13866;SDS011;7003;46.982;15.248;2023-02-16T02:19:38;11.20;;;6.90;;
13866;SDS011;7003;46.982;15.248;2023-02-16T02:22:21;14.40;;;8.53;;
13866;SDS011;7003;46.982;15.248;2023-02-16T02:25:43;15.00;;;9.10;;
13866;SDS011;7003;46.982;15.248;2023-02-16T02:28:52;12.33;;;8.30;;
13866;SDS011;7003;46.982;15.248;2023-02-16T02:31:30;13.53;;;7.60;;
13866;SDS011;7003;46.982;15.248;2023-02-16T02:34:12;11.47;;;7.17;;
13866;SDS011;7003;46.982;15.248;2023-02-16T02:36:49;11.17;;;6.17;;
13866;SDS011;7003;46.982;15.248;2023-02-16T02:39:32;10.73;;;6.77;;
13866;SDS011;7003;46.982;15.248;2023-02-16T02:42:08;8.53;;;4.57;;
13866;SDS011;7003;46.982;15.248;2023-02-16T02:44:46;10.23;;;5.97;;
13866;SDS011;7003;46.982;15.248;2023-02-16T02:47:14;9.97;;;8.27;;
13866;SDS011;7003;46.982;15.248;2023-02-16T02:49:48;10.37;;;7.20;;
13866;SDS011;7003;46.982;15.248;2023-02-16T02:52:18;8.13;;;6.10;;
13866;SDS011;7003;46.982;15.248;2023-02-16T02:54:49;10.97;;;8.33;;
13866;SDS011;7003;46.982;15.248;2023-02-16T02:57:35;12.30;;;8.80;;
13866;SDS011;7003;46.982;15.248;2023-02-16T03:00:28;9.73;;;6.93;;
13866;SDS011;7003;46.982;15.248;2023-02-16T03:03:11;16.30;;;9.17;;
13866;SDS011;7003;46.982;15.248;2023-02-16T03:05:46;8.53;;;3.60;;
13866;SDS011;7003;46.982;15.248;2023-02-16T03:08:22;9.73;;;6.50;;
13866;SDS011;7003;46.982;15.248;2023-02-16T03:10:54;21.23;;;8.50;;
13866;SDS011;7003;46.982;15.248;2023-02-16T03:13:45;10.20;;;6.23;;
13866;SDS011;7003;46.982;15.248;2023-02-16T03:16:26;10.47;;;5.73;;
13866;SDS011;7003;46.982;15.248;2023-02-16T03:19:04;12.83;;;6.83;;
13866;SDS011;7003;46.982;15.248;2023-02-16T03:21:51;14.83;;;9.30;;
13866;SDS011;7003;46.982;15.248;2023-02-16T03:24:39;9.23;;;6.83;;
13866;SDS011;7003;46.982;15.248;2023-02-16T03:27:25;8.70;;;6.97;;
13866;SDS011;7003;46.982;15.248;2023-02-16T03:30:13;8.43;;;5.33;;
13866;SDS011;7003;46.982;15.248;2023-02-16T03:32:46;8.23;;;5.50;;
13866;SDS011;7003;46.982;15.248;2023-02-16T03:35:13;8.13;;;6.37;;
13866;SDS011;7003;46.982;15.248;2023-02-16T03:37:41;7.03;;;6.37;;
13866;SDS011;7003;46.982;15.248;2023-02-16T03:40:13;12.43;;;8.00;;
13866;SDS011;7003;46.982;15.248;2023-02-16T03:42:57;9.20;;;5.57;;
13866;SDS011;7003;46.982;15.248;2023-02-16T03:45:28;21.90;;;7.67;;
13866;SDS011;7003;46.982;15.248;2023-02-16T03:47:57;8.00;;;5.83;;
13866;SDS011;7003;46.982;15.248;2023-02-16T03:50:27;5.77;;;4.73;;
13866;SDS011;7003;46.982;15.248;2023-02-16T03:52:54;18.83;;;8.93;;
13866;SDS011;7003;46.982;15.248;2023-02-16T03:55:34;9.23;;;5.50;;
13866;SDS011;7003;46.982;15.248;2023-02-16T03:58:07;16.40;;;6.27;;
13866;SDS011;7003;46.982;15.248;2023-02-16T04:00:35;10.30;;;4.80;;
13866;SDS011;7003;46.982;15.248;2023-02-16T04:03:05;9.70;;;7.43;;
13866;SDS011;7003;46.982;15.248;2023-02-16T04:05:33;9.60;;;7.80;;
13866;SDS011;7003;46.982;15.248;2023-02-16T04:08:00;11.13;;;7.63;;
13866;SDS011;7003;46.982;15.248;2023-02-16T04:10:30;7.13;;;5.47;;
13866;SDS011;7003;46.982;15.248;2023-02-16T04:12:57;10.47;;;6.53;;
13866;SDS011;7003;46.982;15.248;2023-02-16T04:15:26;7.87;;;6.50;;
13866;SDS011;7003;46.982;15.248;2023-02-16T04:17:55;9.87;;;7.03;;
13866;SDS011;7003;46.982;15.248;2023-02-16T04:20:24;16.13;;;5.90;;
13866;SDS011;7003;46.982;15.248;2023-02-16T04:22:54;14.90;;;7.73;;
13866;SDS011;7003;46.982;15.248;2023-02-16T04:25:22;8.10;;;6.37;;
13866;SDS011;7003;46.982;15.248;2023-02-16T04:27:49;5.17;;;4.67;;
13866;SDS011;7003;46.982;15.248;2023-02-16T04:30:18;7.87;;;5.50;;
13866;SDS011;7003;46.982;15.248;2023-02-16T04:32:50;8.10;;;4.77;;
13866;SDS011;7003;46.982;15.248;2023-02-16T04:35:19;8.03;;;4.37;;
13866;SDS011;7003;46.982;15.248;2023-02-16T04:37:49;12.93;;;7.47;;
13866;SDS011;7003;46.982;15.248;2023-02-16T04:40:16;11.60;;;6.33;;
13866;SDS011;7003;46.982;15.248;2023-02-16T04:42:44;12.97;;;6.67;;
13866;SDS011;7003;46.982;15.248;2023-02-16T04:45:11;10.93;;;7.60;;
13866;SDS011;7003;46.982;15.248;2023-02-16T04:47:39;6.90;;;4.60;;
13866;SDS011;7003;46.982;15.248;2023-02-16T04:50:07;5.80;;;4.97;;
13866;SDS011;7003;46.982;15.248;2023-02-16T04:52:35;9.10;;;6.23;;
13866;SDS011;7003;46.982;15.248;2023-02-16T04:55:06;9.57;;;7.00;;
13866;SDS011;7003;46.982;15.248;2023-02-16T04:57:35;9.53;;;6.80;;
13866;SDS011;7003;46.982;15.248;2023-02-16T05:00:04;7.73;;;5.90;;
13866;SDS011;7003;46.982;15.248;2023-02-16T05:02:33;10.77;;;4.63;;
13866;SDS011;7003;46.982;15.248;2023-02-16T05:05:00;6.23;;;5.23;;
13866;SDS011;7003;46.982;15.248;2023-02-16T05:07:29;8.07;;;4.47;;
13866;SDS011;7003;46.982;15.248;2023-02-16T05:09:56;11.97;;;7.20;;
13866;SDS011;7003;46.982;15.248;2023-02-16T05:12:27;12.17;;;5.40;;
13866;SDS011;7003;46.982;15.248;2023-02-16T05:15:14;4.40;;;3.83;;
13866;SDS011;7003;46.982;15.248;2023-02-16T05:17:44;12.27;;;7.87;;
13866;SDS011;7003;46.982;15.248;2023-02-16T05:20:12;13.13;;;6.80;;
13866;SDS011;7003;46.982;15.248;2023-02-16T05:22:39;7.20;;;5.77;;
13866;SDS011;7003;46.982;15.248;2023-02-16T05:25:09;8.53;;;6.10;;
13866;SDS011;7003;46.982;15.248;2023-02-16T05:27:38;11.70;;;5.00;;
13866;SDS011;7003;46.982;15.248;2023-02-16T05:30:05;5.10;;;4.10;;
13866;SDS011;7003;46.982;15.248;2023-02-16T05:32:36;11.80;;;6.40;;
13866;SDS011;7003;46.982;15.248;2023-02-16T05:35:05;5.63;;;4.53;;
13866;SDS011;7003;46.982;15.248;2023-02-16T05:37:33;7.77;;;6.27;;
13866;SDS011;7003;46.982;15.248;2023-02-16T05:40:01;4.50;;;4.00;;
13866;SDS011;7003;46.982;15.248;2023-02-16T05:42:28;8.37;;;5.60;;
13866;SDS011;7003;46.982;15.248;2023-02-16T05:44:57;5.10;;;3.53;;
13866;SDS011;7003;46.982;15.248;2023-02-16T05:47:27;6.80;;;5.87;;
13866;SDS011;7003;46.982;15.248;2023-02-16T05:49:55;9.73;;;6.17;;
13866;SDS011;7003;46.982;15.248;2023-02-16T05:52:23;16.97;;;7.70;;
13866;SDS011;7003;46.982;15.248;2023-02-16T05:54:52;9.30;;;5.90;;
13866;SDS011;7003;46.982;15.248;2023-02-16T05:57:24;7.73;;;5.63;;
13866;SDS011;7003;46.982;15.248;2023-02-16T05:59:52;11.93;;;5.57;;
13866;SDS011;7003;46.982;15.248;2023-02-16T06:02:23;14.70;;;6.90;;
13866;SDS011;7003;46.982;15.248;2023-02-16T06:04:52;13.20;;;6.67;;
13866;SDS011;7003;46.982;15.248;2023-02-16T06:07:24;9.43;;;6.37;;
13866;SDS011;7003;46.982;15.248;2023-02-16T06:09:52;6.83;;;4.97;;
13866;SDS011;7003;46.982;15.248;2023-02-16T06:12:24;11.93;;;5.57;;
13866;SDS011;7003;46.982;15.248;2023-02-16T06:14:55;10.10;;;5.73;;
13866;SDS011;7003;46.982;15.248;2023-02-16T06:17:25;6.43;;;3.90;;
13866;SDS011;7003;46.982;15.248;2023-02-16T06:19:55;12.80;;;5.97;;
13866;SDS011;7003;46.982;15.248;2023-02-16T06:22:24;5.93;;;5.23;;
13866;SDS011;7003;46.982;15.248;2023-02-16T06:24:56;11.73;;;6.73;;
13866;SDS011;7003;46.982;15.248;2023-02-16T06:27:29;9.43;;;7.40;;
13866;SDS011;7003;46.982;15.248;2023-02-16T06:29:59;7.67;;;6.03;;
13866;SDS011;7003;46.982;15.248;2023-02-16T06:32:35;6.80;;;4.13;;
13866;SDS011;7003;46.982;15.248;2023-02-16T06:35:03;7.73;;;4.83;;
13866;SDS011;7003;46.982;15.248;2023-02-16T06:37:31;8.00;;;5.57;;
13866;SDS011;7003;46.982;15.248;2023-02-16T06:39:59;9.30;;;5.63;;
13866;SDS011;7003;46.982;15.248;2023-02-16T06:42:27;9.07;;;5.17;;
13866;SDS011;7003;46.982;15.248;2023-02-16T06:44:55;7.27;;;5.50;;
13866;SDS011;7003;46.982;15.248;2023-02-16T06:47:26;7.73;;;4.87;;
13866;SDS011;7003;46.982;15.248;2023-02-16T06:49:58;13.07;;;6.67;;
13866;SDS011;7003;46.982;15.248;2023-02-16T06:52:26;10.03;;;6.57;;
13866;SDS011;7003;46.982;15.248;2023-02-16T06:54:54;7.53;;;6.00;;
13866;SDS011;7003;46.982;15.248;2023-02-16T06:57:22;9.77;;;6.17;;
13866;SDS011;7003;46.982;15.248;2023-02-16T06:59:52;10.23;;;6.83;;
13866;SDS011;7003;46.982;15.248;2023-02-16T07:02:21;11.17;;;7.83;;
13866;SDS011;7003;46.982;15.248;2023-02-16T07:04:49;21.97;;;6.17;;
13866;SDS011;7003;46.982;15.248;2023-02-16T07:07:19;8.43;;;5.73;;
13866;SDS011;7003;46.982;15.248;2023-02-16T07:09:48;8.07;;;6.13;;
13866;SDS011;7003;46.982;15.248;2023-02-16T07:12:19;9.13;;;5.97;;
13866;SDS011;7003;46.982;15.248;2023-02-16T07:14:48;8.00;;;5.37;;
13866;SDS011;7003;46.982;15.248;2023-02-16T07:17:18;11.50;;;7.47;;
13866;SDS011;7003;46.982;15.248;2023-02-16T07:19:49;11.40;;;7.23;;
13866;SDS011;7003;46.982;15.248;2023-02-16T07:22:19;7.63;;;4.90;;
13866;SDS011;7003;46.982;15.248;2023-02-16T07:24:47;16.50;;;6.73;;
13866;SDS011;7003;46.982;15.248;2023-02-16T07:27:17;9.37;;;5.60;;
13866;SDS011;7003;46.982;15.248;2023-02-16T07:29:45;9.63;;;6.90;;
13866;SDS011;7003;46.982;15.248;2023-02-16T07:32:13;14.43;;;7.53;;
13866;SDS011;7003;46.982;15.248;2023-02-16T07:34:41;9.23;;;7.80;;
13866;SDS011;7003;46.982;15.248;2023-02-16T07:37:10;9.60;;;6.83;;
13866;SDS011;7003;46.982;15.248;2023-02-16T07:39:39;21.53;;;12.13;;
13866;SDS011;7003;46.982;15.248;2023-02-16T07:42:10;18.73;;;13.77;;
13866;SDS011;7003;46.982;15.248;2023-02-16T07:44:41;14.67;;;9.23;;
13866;SDS011;7003;46.982;15.248;2023-02-16T07:47:09;7.60;;;6.17;;
13866;SDS011;7003;46.982;15.248;2023-02-16T07:49:37;12.63;;;6.07;;
13866;SDS011;7003;46.982;15.248;2023-02-16T07:52:06;7.50;;;5.23;;
13866;SDS011;7003;46.982;15.248;2023-02-16T07:54:34;9.17;;;7.10;;
13866;SDS011;7003;46.982;15.248;2023-02-16T07:57:05;15.03;;;12.17;;
13866;SDS011;7003;46.982;15.248;2023-02-16T07:59:33;23.57;;;12.93;;
13866;SDS011;7003;46.982;15.248;2023-02-16T08:02:03;16.40;;;10.47;;
13866;SDS011;7003;46.982;15.248;2023-02-16T08:04:34;26.67;;;12.20;;
13866;SDS011;7003;46.982;15.248;2023-02-16T08:07:02;28.30;;;17.90;;
13866;SDS011;7003;46.982;15.248;2023-02-16T08:09:30;19.27;;;11.67;;
13866;SDS011;7003;46.982;15.248;2023-02-16T08:12:00;14.40;;;11.20;;
13866;SDS011;7003;46.982;15.248;2023-02-16T08:14:30;15.37;;;8.37;;
13866;SDS011;7003;46.982;15.248;2023-02-16T08:17:00;31.23;;;21.60;;
13866;SDS011;7003;46.982;15.248;2023-02-16T08:19:30;35.40;;;20.83;;
13866;SDS011;7003;46.982;15.248;2023-02-16T08:21:59;36.23;;;23.40;;
13866;SDS011;7003;46.982;15.248;2023-02-16T08:24:29;27.63;;;20.37;;
13866;SDS011;7003;46.982;15.248;2023-02-16T08:27:02;28.53;;;18.57;;
13866;SDS011;7003;46.982;15.248;2023-02-16T08:29:32;13.70;;;10.07;;
13866;SDS011;7003;46.982;15.248;2023-02-16T08:32:00;13.43;;;8.37;;
13866;SDS011;7003;46.982;15.248;2023-02-16T08:34:32;17.00;;;8.10;;
13866;SDS011;7003;46.982;15.248;2023-02-16T08:37:03;8.00;;;7.20;;
13866;SDS011;7003;46.982;15.248;2023-02-16T08:39:33;9.03;;;8.13;;
13866;SDS011;7003;46.982;15.248;2023-02-16T08:42:01;10.20;;;5.73;;
13866;SDS011;7003;46.982;15.248;2023-02-16T08:44:29;13.00;;;6.57;;
13866;SDS011;7003;46.982;15.248;2023-02-16T08:46:59;10.30;;;6.73;;
13866;SDS011;7003;46.982;15.248;2023-02-16T08:49:30;10.37;;;6.57;;
13866;SDS011;7003;46.982;15.248;2023-02-16T08:51:58;9.63;;;6.33;;
13866;SDS011;7003;46.982;15.248;2023-02-16T08:54:29;9.07;;;6.27;;
13866;SDS011;7003;46.982;15.248;2023-02-16T08:57:01;10.10;;;6.93;;
13866;SDS011;7003;46.982;15.248;2023-02-16T08:59:49;9.93;;;6.27;;
13866;SDS011;7003;46.982;15.248;2023-02-16T09:02:40;6.90;;;6.03;;
13866;SDS011;7003;46.982;15.248;2023-02-16T09:05:10;8.77;;;4.73;;
13866;SDS011;7003;46.982;15.248;2023-02-16T09:07:38;8.50;;;4.70;;
13866;SDS011;7003;46.982;15.248;2023-02-16T09:10:06;7.40;;;5.77;;
13866;SDS011;7003;46.982;15.248;2023-02-16T09:12:34;9.60;;;4.90;;
13866;SDS011;7003;46.982;15.248;2023-02-16T09:15:04;6.13;;;4.87;;
13866;SDS011;7003;46.982;15.248;2023-02-16T09:17:33;7.73;;;5.33;;
13866;SDS011;7003;46.982;15.248;2023-02-16T09:20:03;6.60;;;4.93;;
13866;SDS011;7003;46.982;15.248;2023-02-16T09:22:37;9.57;;;5.07;;
13866;SDS011;7003;46.982;15.248;2023-02-16T09:25:06;5.30;;;4.80;;
13866;SDS011;7003;46.982;15.248;2023-02-16T09:27:36;8.07;;;4.77;;
13866;SDS011;7003;46.982;15.248;2023-02-16T09:30:06;6.53;;;5.13;;
13866;SDS011;7003;46.982;15.248;2023-02-16T09:32:37;7.77;;;4.80;;
13866;SDS011;7003;46.982;15.248;2023-02-16T09:35:09;6.28;;;3.88;;
13866;SDS011;7003;46.982;15.248;2023-02-16T09:37:37;13.93;;;5.47;;
13866;SDS011;7003;46.982;15.248;2023-02-16T09:40:08;8.00;;;5.72;;
13866;SDS011;7003;46.982;15.248;2023-02-16T09:42:46;9.85;;;6.53;;
13866;SDS011;7003;46.982;15.248;2023-02-16T09:45:25;5.03;;;3.97;;
13866;SDS011;7003;46.982;15.248;2023-02-16T09:47:54;9.07;;;6.18;;
13866;SDS011;7003;46.982;15.248;2023-02-16T09:50:24;7.03;;;5.00;;
13866;SDS011;7003;46.982;15.248;2023-02-16T09:52:54;7.03;;;5.55;;
13866;SDS011;7003;46.982;15.248;2023-02-16T09:55:28;8.75;;;5.68;;
13866;SDS011;7003;46.982;15.248;2023-02-16T09:58:04;14.45;;;7.72;;
13866;SDS011;7003;46.982;15.248;2023-02-16T10:00:46;10.68;;;7.45;;
13866;SDS011;7003;46.982;15.248;2023-02-16T10:03:24;11.95;;;6.97;;
13866;SDS011;7003;46.982;15.248;2023-02-16T10:06:04;8.82;;;5.85;;
13866;SDS011;7003;46.982;15.248;2023-02-16T10:08:47;9.55;;;6.05;;
13866;SDS011;7003;46.982;15.248;2023-02-16T10:11:20;9.23;;;7.13;;
13866;SDS011;7003;46.982;15.248;2023-02-16T10:14:07;7.82;;;6.07;;
13866;SDS011;7003;46.982;15.248;2023-02-16T10:16:44;8.95;;;6.47;;
13866;SDS011;7003;46.982;15.248;2023-02-16T10:19:21;9.85;;;6.70;;
13866;SDS011;7003;46.982;15.248;2023-02-16T10:21:55;7.28;;;5.78;;
13866;SDS011;7003;46.982;15.248;2023-02-16T10:24:26;10.43;;;6.20;;
13866;SDS011;7003;46.982;15.248;2023-02-16T10:26:58;8.38;;;5.85;;
13866;SDS011;7003;46.982;15.248;2023-02-16T10:29:34;11.13;;;7.50;;
13866;SDS011;7003;46.982;15.248;2023-02-16T10:32:05;8.63;;;6.15;;
13866;SDS011;7003;46.982;15.248;2023-02-16T10:34:47;8.07;;;5.63;;
13866;SDS011;7003;46.982;15.248;2023-02-16T10:40:17;15.40;;;8.02;;
13866;SDS011;7003;46.982;15.248;2023-02-16T10:42:57;7.80;;;6.05;;
13866;SDS011;7003;46.982;15.248;2023-02-16T10:45:35;8.18;;;6.40;;
13866;SDS011;7003;46.982;15.248;2023-02-16T10:48:14;7.95;;;5.90;;
13866;SDS011;7003;46.982;15.248;2023-02-16T10:50:42;12.93;;;7.55;;
13866;SDS011;7003;46.982;15.248;2023-02-16T10:53:18;9.30;;;7.18;;
13866;SDS011;7003;46.982;15.248;2023-02-16T10:55:54;8.73;;;6.47;;
13866;SDS011;7003;46.982;15.248;2023-02-16T10:58:23;8.05;;;5.88;;
13866;SDS011;7003;46.982;15.248;2023-02-16T11:00:57;9.55;;;6.43;;
13866;SDS011;7003;46.982;15.248;2023-02-16T11:03:37;12.52;;;7.28;;
13866;SDS011;7003;46.982;15.248;2023-02-16T11:06:12;6.55;;;4.65;;
13866;SDS011;7003;46.982;15.248;2023-02-16T11:08:46;7.65;;;5.72;;
13866;SDS011;7003;46.982;15.248;2023-02-16T11:11:16;7.28;;;5.55;;
13866;SDS011;7003;46.982;15.248;2023-02-16T11:13:47;7.28;;;4.85;;
13866;SDS011;7003;46.982;15.248;2023-02-16T11:16:19;11.00;;;7.55;;
13866;SDS011;7003;46.982;15.248;2023-02-16T11:18:57;10.40;;;8.60;;
13866;SDS011;7003;46.982;15.248;2023-02-16T11:21:42;15.10;;;8.02;;
13866;SDS011;7003;46.982;15.248;2023-02-16T11:24:12;10.15;;;7.60;;
13866;SDS011;7003;46.982;15.248;2023-02-16T11:27:03;10.73;;;8.32;;
13866;SDS011;7003;46.982;15.248;2023-02-16T11:29:47;12.68;;;8.93;;
13866;SDS011;7003;46.982;15.248;2023-02-16T11:32:18;11.43;;;7.97;;
13866;SDS011;7003;46.982;15.248;2023-02-16T11:34:51;11.02;;;7.80;;
13866;SDS011;7003;46.982;15.248;2023-02-16T11:37:22;14.70;;;7.32;;
13866;SDS011;7003;46.982;15.248;2023-02-16T11:39:54;11.52;;;7.68;;
13866;SDS011;7003;46.982;15.248;2023-02-16T11:42:26;9.90;;;7.85;;
13866;SDS011;7003;46.982;15.248;2023-02-16T11:44:57;11.15;;;7.82;;
13866;SDS011;7003;46.982;15.248;2023-02-16T11:47:30;15.40;;;8.98;;
13866;SDS011;7003;46.982;15.248;2023-02-16T11:50:16;11.95;;;8.27;;
13866;SDS011;7003;46.982;15.248;2023-02-16T11:52:45;10.65;;;7.93;;
13866;SDS011;7003;46.982;15.248;2023-02-16T11:55:24;10.63;;;7.10;;
13866;SDS011;7003;46.982;15.248;2023-02-16T11:58:11;8.45;;;6.55;;
13866;SDS011;7003;46.982;15.248;2023-02-16T12:00:43;12.23;;;6.40;;
13866;SDS011;7003;46.982;15.248;2023-02-16T12:03:22;12.18;;;7.45;;
13866;SDS011;7003;46.982;15.248;2023-02-16T12:06:06;10.23;;;7.13;;
13866;SDS011;7003;46.982;15.248;2023-02-16T12:08:51;7.20;;;6.32;;
13866;SDS011;7003;46.982;15.248;2023-02-16T12:11:33;6.82;;;5.97;;
13866;SDS011;7003;46.982;15.248;2023-02-16T12:14:23;6.97;;;5.88;;
13866;SDS011;7003;46.982;15.248;2023-02-16T12:17:06;12.25;;;6.05;;
13866;SDS011;7003;46.982;15.248;2023-02-16T12:19:49;6.75;;;5.15;;
13866;SDS011;7003;46.982;15.248;2023-02-16T12:22:27;11.40;;;5.63;;
13866;SDS011;7003;46.982;15.248;2023-02-16T12:25:15;7.35;;;5.28;;
13866;SDS011;7003;46.982;15.248;2023-02-16T12:27:50;8.75;;;6.30;;
13866;SDS011;7003;46.982;15.248;2023-02-16T12:30:27;6.88;;;4.85;;
13866;SDS011;7003;46.982;15.248;2023-02-16T12:33:06;6.22;;;5.25;;
13866;SDS011;7003;46.982;15.248;2023-02-16T12:35:51;6.68;;;4.40;;
13866;SDS011;7003;46.982;15.248;2023-02-16T12:38:35;5.47;;;4.95;;
13866;SDS011;7003;46.982;15.248;2023-02-16T12:41:18;6.60;;;3.83;;
13866;SDS011;7003;46.982;15.248;2023-02-16T12:43:55;5.70;;;4.97;;
13866;SDS011;7003;46.982;15.248;2023-02-16T12:46:29;6.22;;;4.15;;
13866;SDS011;7003;46.982;15.248;2023-02-16T12:49:04;7.18;;;4.60;;
13866;SDS011;7003;46.982;15.248;2023-02-16T12:51:41;6.50;;;4.88;;
13866;SDS011;7003;46.982;15.248;2023-02-16T12:54:18;6.72;;;4.53;;
13866;SDS011;7003;46.982;15.248;2023-02-16T12:56:53;5.90;;;4.38;;
13866;SDS011;7003;46.982;15.248;2023-02-16T12:59:30;6.03;;;4.93;;
13866;SDS011;7003;46.982;15.248;2023-02-16T13:02:10;7.00;;;5.20;;
13866;SDS011;7003;46.982;15.248;2023-02-16T13:04:45;4.28;;;3.88;;
13866;SDS011;7003;46.982;15.248;2023-02-16T13:07:18;6.53;;;4.43;;
13866;SDS011;7003;46.982;15.248;2023-02-16T13:09:56;5.15;;;4.63;;
13866;SDS011;7003;46.982;15.248;2023-02-16T13:12:30;6.85;;;5.40;;
13866;SDS011;7003;46.982;15.248;2023-02-16T13:15:08;7.93;;;6.18;;
13866;SDS011;7003;46.982;15.248;2023-02-16T13:17:40;6.50;;;4.97;;
13866;SDS011;7003;46.982;15.248;2023-02-16T13:20:16;7.30;;;6.22;;
13866;SDS011;7003;46.982;15.248;2023-02-16T13:22:50;7.18;;;5.20;;
13866;SDS011;7003;46.982;15.248;2023-02-16T13:32:11;7.63;;;6.00;;
13866;SDS011;7003;46.982;15.248;2023-02-16T13:34:59;4.88;;;4.35;;
13866;SDS011;7003;46.982;15.248;2023-02-16T13:37:52;9.57;;;5.43;;
13866;SDS011;7003;46.982;15.248;2023-02-16T13:40:49;8.23;;;5.10;;
13866;SDS011;7003;46.982;15.248;2023-02-16T13:43:47;8.15;;;4.75;;
13866;SDS011;7003;46.982;15.248;2023-02-16T13:46:24;10.07;;;7.60;;
13866;SDS011;7003;46.982;15.248;2023-02-16T13:48:56;6.15;;;4.65;;
13866;SDS011;7003;46.982;15.248;2023-02-16T13:51:27;10.57;;;6.10;;
13866;SDS011;7003;46.982;15.248;2023-02-16T13:54:12;8.65;;;5.50;;
13866;SDS011;7003;46.982;15.248;2023-02-16T13:56:53;9.25;;;5.95;;
13866;SDS011;7003;46.982;15.248;2023-02-16T14:05:25;9.95;;;6.32;;
13866;SDS011;7003;46.982;15.248;2023-02-16T14:08:08;5.40;;;4.53;;
13866;SDS011;7003;46.982;15.248;2023-02-16T14:13:29;11.93;;;7.05;;
13866;SDS011;7003;46.982;15.248;2023-02-16T14:16:01;9.15;;;6.00;;
13866;SDS011;7003;46.982;15.248;2023-02-16T14:18:39;5.07;;;3.85;;
13866;SDS011;7003;46.982;15.248;2023-02-16T14:21:19;5.47;;;4.97;;
13866;SDS011;7003;46.982;15.248;2023-02-16T14:23:59;7.55;;;5.75;;
13866;SDS011;7003;46.982;15.248;2023-02-16T14:26:29;7.93;;;5.72;;
13866;SDS011;7003;46.982;15.248;2023-02-16T14:29:12;10.93;;;7.03;;
13866;SDS011;7003;46.982;15.248;2023-02-16T14:31:49;7.18;;;5.15;;
13866;SDS011;7003;46.982;15.248;2023-02-16T14:34:24;6.93;;;4.97;;
13866;SDS011;7003;46.982;15.248;2023-02-16T14:37:09;9.15;;;5.45;;
13866;SDS011;7003;46.982;15.248;2023-02-16T14:39:54;11.57;;;6.72;;
13866;SDS011;7003;46.982;15.248;2023-02-16T14:42:30;8.43;;;6.05;;
13866;SDS011;7003;46.982;15.248;2023-02-16T14:45:04;9.40;;;7.35;;
13866;SDS011;7003;46.982;15.248;2023-02-16T14:47:46;12.30;;;7.30;;
13866;SDS011;7003;46.982;15.248;2023-02-16T14:50:30;12.27;;;6.65;;
13866;SDS011;7003;46.982;15.248;2023-02-16T14:53:19;8.88;;;7.15;;
13866;SDS011;7003;46.982;15.248;2023-02-16T14:56:12;8.60;;;5.78;;
13866;SDS011;7003;46.982;15.248;2023-02-16T14:59:12;8.38;;;6.07;;
13866;SDS011;7003;46.982;15.248;2023-02-16T15:01:50;10.38;;;7.00;;
13866;SDS011;7003;46.982;15.248;2023-02-16T15:04:27;11.82;;;6.05;;
13866;SDS011;7003;46.982;15.248;2023-02-16T15:07:00;9.25;;;6.60;;
13866;SDS011;7003;46.982;15.248;2023-02-16T15:09:33;12.82;;;6.72;;
13866;SDS011;7003;46.982;15.248;2023-02-16T15:12:02;4.70;;;3.97;;
13866;SDS011;7003;46.982;15.248;2023-02-16T15:14:55;5.82;;;3.83;;
13866;SDS011;7003;46.982;15.248;2023-02-16T15:17:28;7.65;;;4.68;;
13866;SDS011;7003;46.982;15.248;2023-02-16T15:20:01;10.52;;;7.35;;
13866;SDS011;7003;46.982;15.248;2023-02-16T15:22:35;20.77;;;11.10;;
13866;SDS011;7003;46.982;15.248;2023-02-16T15:25:18;18.45;;;12.13;;
13866;SDS011;7003;46.982;15.248;2023-02-16T15:27:53;22.55;;;11.88;;
13866;SDS011;7003;46.982;15.248;2023-02-16T15:30:25;30.80;;;20.30;;
13866;SDS011;7003;46.982;15.248;2023-02-16T15:32:57;17.60;;;12.15;;
13866;SDS011;7003;46.982;15.248;2023-02-16T15:35:30;30.27;;;13.85;;
13866;SDS011;7003;46.982;15.248;2023-02-16T15:38:07;18.95;;;11.02;;
13866;SDS011;7003;46.982;15.248;2023-02-16T15:40:52;15.43;;;8.27;;